Time;durP1;ratioP1;P1;durP2;ratioP2;P2;SDS_P1;SDS_P2;PMS_P1;PMS_P2;Temp;Humidity;BMP_temperature;BMP_pressure;BME280_temperature;BME280_humidity;BME280_pressure;Samples;Min_cycle;Max_cycle;Signal;HPM_P1;HPM_P2
2022/05/05 00:00:47;;;;;;;24.18;17.02;;;;;;;7.24;88.44;98287.42;1794203;79;20985;-80
2022/05/05 00:03:13;;;;;;;27.17;19.65;;;;;;;7.22;86.83;98280.13;1802273;79;22317;-88
2022/05/05 00:05:38;;;;;;;30.00;19.30;;;;;;;7.21;85.25;98283.89;1802496;79;20875;-86
2022/05/05 00:08:05;;;;;;;24.77;17.75;;;;;;;7.15;84.60;98283.53;1798153;79;21970;-86
2022/05/05 00:16:00;;;;;;;26.75;17.82;;;;;;;6.85;84.38;98281.81;1779088;79;20967;-79
2022/05/05 00:18:26;;;;;;;25.68;18.52;;;;;;;6.79;82.80;98279.58;1799170;79;20868;-88
2022/05/05 00:20:52;;;;;;;29.57;20.25;;;;;;;6.74;86.65;98280.84;1799265;79;21769;-79
2022/05/05 00:23:18;;;;;;;27.32;19.65;;;;;;;6.75;86.92;98281.12;1798895;79;20833;-88
2022/05/05 00:25:44;;;;;;;23.80;16.73;;;;;;;6.75;85.74;98286.50;1799255;79;21390;-80
2022/05/05 00:28:10;;;;;;;27.55;17.48;;;;;;;6.72;84.34;98282.97;1798981;79;20824;-82
2022/05/05 00:30:35;;;;;;;27.15;19.12;;;;;;;6.67;83.90;98288.30;1799312;79;21049;-88
2022/05/05 00:33:01;;;;;;;28.02;19.30;;;;;;;6.57;88.32;98286.78;1793940;79;21148;-79
2022/05/05 00:35:27;;;;;;;27.62;18.25;;;;;;;6.59;86.06;98282.81;1759625;79;20996;-88
2022/05/05 00:37:53;;;;;;;30.45;17.70;;;;;;;6.57;88.07;98284.09;1765169;79;20878;-88
2022/05/05 00:40:19;;;;;;;34.05;19.77;;;;;;;6.52;88.31;98282.69;1741644;79;20881;-79
2022/05/05 00:42:46;;;;;;;27.20;17.52;;;;;;;6.50;88.09;98285.10;1773165;80;20942;-88
2022/05/05 00:45:12;;;;;;;26.17;16.85;;;;;;;6.47;85.80;98280.19;1772421;79;21484;-87
2022/05/05 00:47:38;;;;;;;29.90;17.75;;;;;;;6.44;85.36;98283.39;1808152;79;21536;-88
2022/05/05 00:50:05;;;;;;;27.48;17.77;;;;;;;6.47;86.80;98287.45;1808082;79;21053;-78
2022/05/05 00:52:31;;;;;;;26.45;17.92;;;;;;;6.48;86.85;98291.24;1834541;78;21074;-79
2022/05/05 00:54:57;;;;;;;26.10;19.15;;;;;;;6.49;88.17;98289.36;1810612;78;20887;-79
2022/05/05 00:57:23;;;;;;;29.72;19.77;;;;;;;6.53;86.06;98295.91;1829998;78;21921;-88
2022/05/05 00:59:50;;;;;;;30.23;20.20;;;;;;;6.56;88.36;98295.40;1813991;78;21034;-87
2022/05/05 01:02:17;;;;;;;26.12;18.05;;;;;;;6.60;89.91;98295.73;1799278;79;21474;-79
2022/05/05 01:04:43;;;;;;;29.95;19.70;;;;;;;6.50;90.20;98293.18;1799798;79;20998;-78
2022/05/05 01:07:09;;;;;;;29.90;20.05;;;;;;;6.48;89.19;98290.42;1787498;79;21595;-88
2022/05/05 01:09:35;;;;;;;25.30;18.50;;;;;;;6.42;88.08;98293.59;1797431;79;21265;-79
2022/05/05 01:12:02;;;;;;;27.45;17.75;;;;;;;6.41;86.31;98299.20;1799126;79;20848;-79
2022/05/05 01:14:30;;;;;;;28.05;19.70;;;;;;;6.37;86.20;98296.20;1799095;79;21061;-79
2022/05/05 01:16:58;;;;;;;24.15;18.10;;;;;;;6.36;87.28;98301.83;1799151;79;21066;-80
2022/05/05 01:19:24;;;;;;;25.48;17.00;;;;;;;6.35;89.40;98292.13;1799234;79;20999;-87
2022/05/05 01:21:55;;;;;;;25.08;16.70;;;;;;;6.37;86.62;98297.55;1799269;79;21027;-79
2022/05/05 01:29:53;;;;;;;25.12;16.87;;;;;;;6.31;86.31;98300.39;1804997;79;21010;-82
2022/05/05 01:32:19;;;;;;;32.60;19.62;;;;;;;6.34;88.29;98298.05;1799132;79;21038;-80
2022/05/05 01:34:45;;;;;;;26.87;18.50;;;;;;;6.40;89.12;98294.88;1799362;79;21131;-88
2022/05/05 01:37:11;;;;;;;24.02;16.07;;;;;;;6.42;88.94;98298.98;1799286;79;20863;-88
2022/05/05 01:39:37;;;;;;;34.83;21.93;;;;;;;6.45;88.12;98299.82;1799277;79;20971;-88
2022/05/05 01:42:04;;;;;;;25.25;18.07;;;;;;;6.44;89.17;98296.85;1799309;79;21500;-87
2022/05/05 01:44:30;;;;;;;30.85;18.35;;;;;;;6.47;89.47;98297.69;1799254;79;21469;-85
2022/05/05 01:46:56;;;;;;;27.07;17.42;;;;;;;6.50;89.46;98303.14;1823296;78;21004;-79
2022/05/05 01:49:22;;;;;;;26.57;18.40;;;;;;;6.52;89.42;98297.50;1831970;78;20851;-88
2022/05/05 01:51:48;;;;;;;23.55;17.32;;;;;;;6.52;88.62;98303.70;1828752;78;20949;-88
2022/05/05 01:54:14;;;;;;;27.37;18.95;;;;;;;6.51;88.56;98296.69;1780085;79;20928;-87
2022/05/05 01:56:40;;;;;;;25.68;18.15;;;;;;;6.52;88.96;98292.11;1820286;78;20886;-79
2022/05/05 01:59:06;;;;;;;27.93;19.55;;;;;;;6.51;89.08;98306.11;1832001;77;20984;-88
2022/05/05 02:01:33;;;;;;;24.85;17.80;;;;;;;6.52;89.03;98296.16;1812455;77;20934;-79
2022/05/05 02:04:01;;;;;;;26.55;18.12;;;;;;;6.54;88.76;98296.72;1799118;79;21461;-79
2022/05/05 02:06:27;;;;;;;29.77;17.10;;;;;;;6.54;88.75;98299.41;1817018;78;20962;-87
2022/05/05 02:08:53;;;;;;;28.32;18.23;;;;;;;6.53;88.95;98301.28;1832115;78;22123;-79
2022/05/05 02:11:19;;;;;;;28.67;17.30;;;;;;;6.57;88.77;98297.55;1831803;78;21907;-88
2022/05/05 02:13:44;;;;;;;30.88;17.60;;;;;;;6.56;89.27;98302.66;1828757;78;20835;-88
2022/05/05 02:16:10;;;;;;;28.27;18.25;;;;;;;6.49;88.93;98300.13;1799351;79;20946;-88
2022/05/05 02:18:37;;;;;;;26.77;17.50;;;;;;;6.50;88.58;98299.09;1798949;79;20963;-79
2022/05/05 02:21:03;;;;;;;25.35;17.52;;;;;;;6.46;88.40;98304.67;1799082;78;20942;-86
2022/05/05 02:23:29;;;;;;;28.27;16.07;;;;;;;6.45;87.93;98300.35;1798999;78;21140;-79
2022/05/05 02:25:54;;;;;;;25.57;16.52;;;;;;;6.43;86.53;98301.14;1809975;78;20862;-88
2022/05/05 02:28:20;;;;;;;24.07;15.90;;;;;;;6.30;86.92;98292.85;1831544;78;20843;-79
2022/05/05 02:30:46;;;;;;;28.40;18.42;;;;;;;6.30;86.92;98292.85;1822738;77;20930;-88
2022/05/05 02:33:12;;;;;;;28.52;17.17;;;;;;;6.30;86.36;98295.54;1799158;79;20884;-79
2022/05/05 02:35:38;;;;;;;30.10;16.50;;;;;;;6.29;86.11;98297.14;1799498;79;20975;-88
2022/05/05 02:40:49;;;;;;;27.10;17.48;;;;;;;6.15;86.21;98302.86;1799053;79;20998;-80
2022/05/05 02:43:15;;;;;;;29.35;17.57;;;;;;;6.13;89.42;98304.95;1799218;79;20820;-87
2022/05/05 02:45:41;;;;;;;26.60;17.20;;;;;;;6.17;90.52;98299.92;1798646;79;21030;-87
2022/05/05 02:48:08;;;;;;;28.25;17.90;;;;;;;6.19;88.15;98299.95;1798903;79;21144;-79
2022/05/05 02:50:34;;;;;;;25.02;15.85;;;;;;;6.17;87.63;98300.73;1805144;78;20958;-86
2022/05/05 02:53:00;;;;;;;29.23;18.52;;;;;;;6.11;90.41;98303.05;1818139;78;20982;-79
2022/05/05 02:55:27;;;;;;;29.85;19.40;;;;;;;6.16;90.79;98302.33;1791284;79;20998;-88
2022/05/05 02:57:52;;;;;;;27.98;18.62;;;;;;;6.20;90.81;98306.96;1799560;79;20951;-87
2022/05/05 03:00:20;;;;;;;24.32;16.35;;;;;;;6.22;91.68;98307.53;1823544;78;21012;-79
2022/05/05 03:02:46;;;;;;;22.07;16.65;;;;;;;6.26;89.92;98309.22;1788251;79;21014;-87
2022/05/05 03:05:17;;;;;;;27.80;19.12;;;;;;;6.22;88.31;98305.37;1797785;79;21086;-87
2022/05/05 03:07:44;;;;;;;25.27;16.55;;;;;;;6.19;89.68;98306.68;1784680;79;21458;-79
2022/05/05 03:10:11;;;;;;;26.12;16.82;;;;;;;6.20;88.20;98308.31;1818985;78;21029;-79
2022/05/05 03:12:37;;;;;;;22.35;16.35;;;;;;;6.18;87.64;98306.40;1794143;79;21152;-79
2022/05/05 03:15:04;;;;;;;25.70;17.27;;;;;;;6.15;87.35;98312.78;1831711;77;20834;-79
2022/05/05 03:17:31;;;;;;;25.97;17.50;;;;;;;6.09;87.36;98311.09;1795053;79;21073;-79
2022/05/05 03:19:57;;;;;;;23.52;16.90;;;;;;;6.07;89.54;98318.06;1825192;78;21019;-87
2022/05/05 03:22:23;;;;;;;24.55;16.60;;;;;;;6.06;87.51;98319.09;1807673;78;21044;-87
2022/05/05 03:24:49;;;;;;;27.48;17.45;;;;;;;6.03;87.27;98322.28;1776318;80;21145;-87
2022/05/05 03:27:15;;;;;;;28.32;18.65;;;;;;;6.02;88.43;98327.38;1772861;79;20980;-86
2022/05/05 03:29:41;;;;;;;32.60;19.37;;;;;;;6.12;88.56;98318.13;1805444;79;21635;-85
2022/05/05 03:32:08;;;;;;;36.63;17.67;;;;;;;6.12;88.56;98318.13;1798964;79;21037;-78
2022/05/05 03:34:34;;;;;;;26.82;18.10;;;;;;;6.12;87.97;98319.47;1799368;79;21431;-87
2022/05/05 03:37:00;;;;;;;26.27;17.25;;;;;;;6.17;89.49;98319.57;1799083;79;21287;-79
2022/05/05 03:39:25;;;;;;;25.10;17.42;;;;;;;6.23;88.40;98323.95;1828964;78;20933;-87
2022/05/05 03:41:51;;;;;;;28.20;19.42;;;;;;;6.25;88.29;98330.47;1831753;78;20973;-79
2022/05/05 03:44:17;;;;;;;28.92;18.57;;;;;;;6.29;88.04;98332.13;1831875;78;20863;-80
2022/05/05 03:46:43;;;;;;;26.20;17.15;;;;;;;6.32;89.29;98323.02;1831666;78;20981;-79
2022/05/05 03:49:10;;;;;;;28.62;19.70;;;;;;;6.40;88.98;98327.18;1832024;78;21219;-87
2022/05/05 03:51:36;;;;;;;25.88;17.05;;;;;;;6.45;89.36;98328.62;1831547;78;21124;-87
2022/05/05 03:54:02;;;;;;;29.37;19.27;;;;;;;6.57;88.95;98330.68;1777348;78;20891;-87
2022/05/05 03:56:29;;;;;;;28.07;18.45;;;;;;;6.57;88.95;98330.68;1798883;79;21014;-78
2022/05/05 03:58:54;;;;;;;29.98;18.40;;;;;;;6.68;88.77;98325.75;1799378;78;21549;-79
2022/05/05 04:01:20;;;;;;;32.17;18.42;;;;;;;6.75;88.70;98330.44;1798175;78;21283;-82
2022/05/05 04:03:46;;;;;;;24.43;17.15;;;;;;;6.89;88.28;98328.20;1801620;79;20918;-87
2022/05/05 04:06:13;;;;;;;29.42;17.85;;;;;;;7.00;88.35;98329.14;1799110;79;20934;-79
2022/05/05 04:08:39;;;;;;;24.85;16.93;;;;;;;7.05;90.80;98331.38;1798979;79;21443;-88
2022/05/05 04:11:07;;;;;;;29.82;18.05;;;;;;;7.25;90.09;98330.02;1799103;79;21034;-78
2022/05/05 04:13:33;;;;;;;29.20;18.05;;;;;;;7.43;89.27;98334.27;1793174;78;21146;-79
2022/05/05 04:15:59;;;;;;;27.42;18.98;;;;;;;7.58;89.52;98334.45;1795171;79;21072;-79
2022/05/05 04:18:25;;;;;;;28.42;19.82;;;;;;;7.67;90.17;98334.82;1824844;78;20937;-79
2022/05/05 04:20:51;;;;;;;30.62;20.68;;;;;;;7.75;89.52;98343.81;1825001;78;20851;-79
2022/05/05 04:23:16;;;;;;;34.95;21.52;;;;;;;7.79;89.25;98346.30;1802842;78;20890;-87
2022/05/05 04:25:44;;;;;;;31.93;21.27;;;;;;;7.87;88.68;98346.66;1772429;80;21909;-88
2022/05/05 04:28:11;;;;;;;30.88;21.50;;;;;;;7.88;89.08;98340.73;1772371;80;20967;-88
2022/05/05 04:30:38;;;;;;;26.20;18.65;;;;;;;7.90;88.96;98345.33;1775430;80;21049;-87
2022/05/05 04:33:04;;;;;;;27.75;18.12;;;;;;;7.97;87.97;98347.83;1771296;80;21044;-79
2022/05/05 04:35:30;;;;;;;28.52;19.98;;;;;;;7.98;88.12;98350.27;1771698;80;20997;-88
2022/05/05 04:37:56;;;;;;;34.83;22.80;;;;;;;8.05;88.13;98346.84;1774973;80;21167;-79
2022/05/05 04:40:22;;;;;;;29.87;20.12;;;;;;;8.13;89.08;98347.73;1776318;80;20970;-79
2022/05/05 04:42:48;;;;;;;28.70;20.77;;;;;;;8.26;88.92;98353.77;1769430;81;20890;-79
2022/05/05 04:45:14;;;;;;;30.43;21.25;;;;;;;8.36;88.92;98349.30;1771292;80;21064;-88
2022/05/05 04:47:40;;;;;;;28.65;19.73;;;;;;;8.50;88.49;98351.58;1774091;80;21057;-88
2022/05/05 04:50:07;;;;;;;33.05;19.98;;;;;;;8.61;88.11;98345.98;1774048;80;21214;-87
2022/05/05 04:52:33;;;;;;;35.88;22.55;;;;;;;8.76;88.12;98346.64;1800097;79;21024;-88
2022/05/05 04:54:59;;;;;;;37.85;29.15;;;;;;;8.88;87.75;98348.59;1792996;79;20943;-79
2022/05/05 04:57:25;;;;;;;43.25;31.90;;;;;;;8.97;87.92;98349.77;1799365;79;20876;-87
2022/05/05 04:59:52;;;;;;;42.45;31.50;;;;;;;9.02;87.46;98345.72;1799348;78;21013;-87
2022/05/05 05:02:18;;;;;;;37.85;29.32;;;;;;;9.14;86.89;98352.27;1798972;79;21281;-79
2022/05/05 05:04:44;;;;;;;33.60;25.48;;;;;;;9.25;86.54;98349.91;1799095;79;20939;-87
2022/05/05 05:07:10;;;;;;;32.63;23.15;;;;;;;9.35;86.40;98351.03;1799260;79;21517;-79
2022/05/05 05:09:36;;;;;;;32.60;24.43;;;;;;;9.43;86.17;98349.99;1800547;79;20840;-88
2022/05/05 05:12:02;;;;;;;37.33;22.17;;;;;;;9.42;86.41;98347.55;1797602;79;21419;-79
2022/05/05 05:14:28;;;;;;;24.95;18.42;;;;;;;9.53;86.00;98347.32;1803322;79;21902;-80
2022/05/05 05:16:54;;;;;;;29.12;18.45;;;;;;;9.65;85.77;98348.98;1800893;79;20999;-88
2022/05/05 05:19:20;;;;;;;30.55;20.27;;;;;;;9.73;86.34;98351.98;1799395;79;21684;-78
2022/05/05 05:21:47;;;;;;;28.27;19.07;;;;;;;9.84;86.13;98349.59;1798984;79;21062;-89
2022/05/05 05:24:13;;;;;;;30.52;18.98;;;;;;;10.12;85.20;98350.19;1799538;78;21469;-88
2022/05/05 05:26:39;;;;;;;31.55;22.45;;;;;;;10.12;85.20;98350.19;1821759;78;21195;-79
2022/05/05 05:29:05;;;;;;;34.18;20.72;;;;;;;10.30;85.21;98355.66;1831715;78;20986;-78
2022/05/05 05:31:31;;;;;;;25.90;20.00;;;;;;;10.50;85.23;98346.17;1831946;78;21017;-79
2022/05/05 05:33:57;;;;;;;31.40;20.12;;;;;;;10.68;84.68;98342.11;1831945;77;21378;-86
2022/05/05 05:36:23;;;;;;;27.15;19.15;;;;;;;10.88;84.72;98348.06;1808754;78;20855;-89
2022/05/05 05:38:49;;;;;;;33.63;21.42;;;;;;;11.04;84.13;98343.44;1797772;78;21281;-82
2022/05/05 05:41:15;;;;;;;30.48;20.45;;;;;;;11.20;83.85;98344.48;1797636;79;20903;-88
2022/05/05 05:43:41;;;;;;;25.85;18.05;;;;;;;11.35;82.52;98341.42;1798897;79;21014;-79
2022/05/05 05:46:08;;;;;;;31.42;18.80;;;;;;;11.40;82.06;98344.95;1814052;78;20946;-89
2022/05/05 05:48:34;;;;;;;31.00;19.25;;;;;;;11.50;81.89;98348.97;1801686;78;21062;-88
2022/05/05 05:51:00;;;;;;;28.83;20.90;;;;;;;11.62;81.30;98341.05;1792817;79;21239;-88
2022/05/05 05:53:26;;;;;;;29.42;19.12;;;;;;;11.79;81.01;98345.06;1812632;78;20857;-79
2022/05/05 05:55:52;;;;;;;22.05;16.32;;;;;;;12.01;80.39;98340.61;1801242;77;20874;-80
2022/05/05 05:58:18;;;;;;;25.02;17.20;;;;;;;12.22;79.84;98345.89;1790878;79;20935;-88
2022/05/05 06:00:44;;;;;;;21.77;15.58;;;;;;;12.38;79.83;98341.98;1807262;78;21030;-88
2022/05/05 06:05:54;;;;;;;30.92;20.85;;;;;;;12.84;79.68;98339.70;1804511;78;21445;-87
2022/05/05 06:08:20;;;;;;;20.60;15.75;;;;;;;13.13;77.97;98339.67;1782963;79;20939;-88
2022/05/05 06:10:46;;;;;;;21.20;14.05;;;;;;;13.32;78.15;98341.13;1797115;77;20863;-80
2022/05/05 06:13:12;;;;;;;23.77;15.15;;;;;;;13.58;78.06;98340.83;1790711;79;20884;-87
2022/05/05 06:15:38;;;;;;;19.23;14.10;;;;;;;13.80;76.61;98345.17;1789655;79;21337;-87
2022/05/05 06:18:04;;;;;;;16.05;12.78;;;;;;;14.08;77.04;98340.70;1804967;78;20863;-90
2022/05/05 06:20:32;;;;;;;24.45;14.18;;;;;;;14.34;75.40;98341.13;1779760;78;21321;-88
2022/05/05 06:22:58;;;;;;;21.25;16.45;;;;;;;14.53;75.59;98345.25;1803074;76;21310;-87
2022/05/05 06:25:24;;;;;;;24.18;17.00;;;;;;;14.71;71.93;98341.67;1796566;78;21529;-89
2022/05/05 06:27:51;;;;;;;18.50;12.43;;;;;;;14.93;73.07;98342.37;1797391;78;21009;-80
2022/05/05 06:30:17;;;;;;;18.65;12.60;;;;;;;15.17;72.06;98341.66;1802555;76;21410;-80
2022/05/05 06:32:44;;;;;;;16.00;12.47;;;;;;;15.42;72.05;98339.55;1812570;76;20911;-80
2022/05/05 06:35:10;;;;;;;16.15;12.45;;;;;;;15.45;69.20;98335.64;1818186;77;21061;-80
2022/05/05 06:37:37;;;;;;;17.05;12.28;;;;;;;15.58;69.20;98333.23;1797233;79;21082;-80
2022/05/05 06:40:05;;;;;;;17.42;12.55;;;;;;;15.76;67.77;98335.06;1797449;79;21911;-80
2022/05/05 06:42:31;;;;;;;13.62;11.25;;;;;;;16.30;69.64;98337.40;1796687;79;20947;-80
2022/05/05 06:44:57;;;;;;;12.47;9.20;;;;;;;16.69;68.97;98334.59;1803041;78;21430;-91
2022/05/05 06:47:24;;;;;;;17.67;10.60;;;;;;;16.84;68.19;98328.19;1803700;78;21100;-90
2022/05/05 06:49:50;;;;;;;12.53;8.48;;;;;;;17.31;66.93;98327.20;1812157;78;21076;-90
2022/05/05 06:52:15;;;;;;;9.93;7.62;;;;;;;17.90;66.33;98325.55;1789553;79;21107;-89
2022/05/05 06:54:41;;;;;;;13.93;7.20;;;;;;;18.24;63.56;98326.14;1788949;78;20910;-92
2022/05/05 06:57:07;;;;;;;7.50;6.47;;;;;;;18.29;62.24;98335.03;1791536;78;20871;-80
2022/05/05 06:59:33;;;;;;;11.00;6.12;;;;;;;18.21;61.97;98331.72;1805147;78;20859;-80
2022/05/05 07:02:02;;;;;;;8.05;6.12;;;;;;;18.19;61.15;98331.78;1821469;76;21789;-79
2022/05/05 07:06:57;;;;;;;8.35;5.70;;;;;;;18.36;59.21;98337.84;1758048;78;21047;-80
2022/05/05 07:12:07;;;;;;;8.20;6.45;;;;;;;18.22;59.34;98331.95;1820795;78;21036;-90
2022/05/05 07:14:33;;;;;;;8.33;6.33;;;;;;;18.31;57.96;98338.82;1819023;78;20966;-90
2022/05/05 07:16:59;;;;;;;12.07;5.33;;;;;;;18.23;57.92;98338.25;1819382;78;21553;-90
2022/05/05 07:19:25;;;;;;;10.98;6.22;;;;;;;18.25;58.22;98338.16;1760010;78;20929;-91
2022/05/05 07:21:51;;;;;;;7.03;5.60;;;;;;;18.41;58.00;98339.06;1786511;78;20882;-89
2022/05/05 07:24:17;;;;;;;6.67;5.62;;;;;;;18.43;58.38;98338.16;1785699;78;20852;-90
2022/05/05 07:26:43;;;;;;;7.62;5.55;;;;;;;18.50;57.33;98335.74;1800897;78;21643;-89
2022/05/05 07:29:09;;;;;;;6.15;5.05;;;;;;;18.65;57.90;98338.56;1807329;78;21121;-91
2022/05/05 07:31:35;;;;;;;8.45;6.00;;;;;;;18.96;57.99;98339.16;1800484;78;20925;-81
2022/05/05 07:34:00;;;;;;;6.97;4.85;;;;;;;19.15;56.78;98338.81;1801717;78;21545;-81
2022/05/05 07:36:26;;;;;;;7.85;6.08;;;;;;;19.41;56.90;98334.03;1804019;78;20882;-81
2022/05/05 07:39:00;;;;;;;16.32;4.83;;;;;;;20.52;54.90;98326.81;1783391;79;22689;-81
2022/05/05 07:41:27;;;;;;;7.17;4.65;;;;;;;21.38;52.95;98329.25;1758831;80;21147;-81
2022/05/05 07:43:53;;;;;;;5.37;4.50;;;;;;;22.15;51.78;98325.20;1733337;80;21126;-81
2022/05/05 07:46:19;;;;;;;7.30;5.12;;;;;;;22.69;45.71;98320.65;1738815;80;21508;-90
2022/05/05 07:48:46;;;;;;;10.28;4.78;;;;;;;23.05;49.07;98325.20;1732660;80;20983;-92
2022/05/05 07:51:12;;;;;;;11.35;9.95;;;;;;;23.53;44.54;98320.52;1754588;80;21116;-92
2022/05/05 07:53:37;;;;;;;9.70;6.75;;;;;;;23.88;43.53;98320.59;1751356;80;20910;-89
2022/05/05 07:56:04;;;;;;;5.05;4.50;;;;;;;24.70;44.47;98318.23;1737149;80;22158;-92
2022/05/05 07:58:30;;;;;;;8.53;5.17;;;;;;;25.21;39.06;98318.02;1732298;80;21369;-89
2022/05/05 08:00:56;;;;;;;6.15;4.10;;;;;;;25.42;39.33;98315.39;1750027;80;20920;-81
2022/05/05 08:03:21;;;;;;;7.22;3.45;;;;;;;25.01;37.05;98317.22;1731705;80;20950;-81
2022/05/05 08:05:48;;;;;;;4.40;3.12;;;;;;;24.29;39.00;98322.48;1741964;80;21050;-81
2022/05/05 08:08:13;;;;;;;8.93;2.42;;;;;;;23.94;41.88;98322.50;1741123;80;21138;-81
2022/05/05 08:10:40;;;;;;;3.72;2.72;;;;;;;23.70;42.09;98328.25;1731559;80;20883;-80
2022/05/05 08:13:06;;;;;;;6.30;3.60;;;;;;;23.43;41.36;98329.35;1738515;80;21130;-81
2022/05/05 08:15:31;;;;;;;5.53;3.70;;;;;;;23.18;41.08;98332.06;1744929;80;20982;-81
2022/05/05 08:17:58;;;;;;;6.90;3.30;;;;;;;23.67;41.15;98328.95;1748740;80;20973;-81
2022/05/05 08:20:23;;;;;;;7.28;3.50;;;;;;;23.13;39.81;98334.48;1753800;80;22014;-89
2022/05/05 08:22:49;;;;;;;6.60;4.25;;;;;;;23.11;42.59;98336.81;1736465;80;21519;-90
2022/05/05 08:30:44;;;;;;;6.85;3.40;;;;;;;22.15;43.43;98339.01;1746226;80;21478;-90
2022/05/05 08:33:10;;;;;;;15.13;3.77;;;;;;;22.18;43.65;98338.30;1718554;80;21662;-89
2022/05/05 08:35:36;;;;;;;5.42;3.22;;;;;;;22.11;43.82;98340.03;1745253;80;21004;-89
2022/05/05 08:38:02;;;;;;;10.88;3.67;;;;;;;21.76;43.63;98336.95;1756337;80;20873;-90
2022/05/05 08:40:28;;;;;;;19.12;3.62;;;;;;;21.52;44.00;98337.73;1748279;80;20952;-88
2022/05/05 08:42:54;;;;;;;4.97;3.42;;;;;;;21.21;44.08;98342.40;1736332;80;20883;-90
2022/05/05 08:45:21;;;;;;;4.28;2.98;;;;;;;21.32;44.64;98340.83;1740724;80;21132;-90
2022/05/05 08:47:51;;;;;;;3.67;2.85;;;;;;;21.35;44.93;98342.31;1736008;80;21148;-89
2022/05/05 08:50:15;;;;;;;5.83;3.43;;;;;;;21.05;43.75;98339.49;1743660;80;21587;-90
2022/05/05 08:52:47;;;;;;;4.22;3.30;;;;;;;20.90;44.54;98338.75;1743674;80;21028;-90
2022/05/05 08:55:14;;;;;;;8.00;3.60;;;;;;;20.99;44.41;98344.98;1746907;80;21500;-90
2022/05/05 08:57:41;;;;;;;5.17;3.52;;;;;;;21.75;43.88;98344.99;1735370;80;21920;-90
2022/05/05 09:00:08;;;;;;;4.42;3.62;;;;;;;22.99;41.26;98343.22;1730014;80;20976;-90
2022/05/05 09:02:34;;;;;;;4.55;3.47;;;;;;;24.35;42.05;98337.66;1747810;80;21031;-87
2022/05/05 09:05:00;;;;;;;5.00;3.87;;;;;;;24.66;37.73;98339.50;1748153;80;20897;-90
2022/05/05 09:07:49;;;;;;;4.40;3.20;;;;;;;24.31;39.08;98340.91;1731751;80;21558;-90
2022/05/05 09:10:17;;;;;;;3.98;3.17;;;;;;;24.31;37.92;98339.53;1728360;80;21142;-90
2022/05/05 09:13:00;;;;;;;4.30;3.67;;;;;;;25.24;37.89;98333.91;1735402;80;21063;-90
2022/05/05 09:15:33;;;;;;;3.02;2.58;;;;;;;27.06;35.33;98337.96;1740710;80;21033;-91
2022/05/05 09:18:17;;;;;;;4.83;3.12;;;;;;;27.28;31.07;98338.98;1734232;80;21429;-90
2022/05/05 09:20:44;;;;;;;6.25;3.25;;;;;;;27.02;31.85;98338.50;1741098;80;21481;-90
2022/05/05 09:23:14;;;;;;;5.67;2.58;;;;;;;28.95;31.95;98337.92;1745139;79;21039;-92
2022/05/05 09:25:47;;;;;;;9.48;2.77;;;;;;;28.76;30.46;98329.87;1737256;80;21044;-89
2022/05/05 09:28:18;;;;;;;6.28;3.00;;;;;;;29.88;29.65;98332.45;1736712;80;20988;-90
2022/05/05 09:30:48;;;;;;;5.35;3.27;;;;;;;30.65;28.23;98335.48;1745496;80;21075;-91
2022/05/05 09:33:17;;;;;;;5.12;2.45;;;;;;;31.91;28.60;98325.32;1734277;80;21433;-91
2022/05/05 09:35:44;;;;;;;7.45;3.17;;;;;;;31.34;24.75;98328.55;1732292;80;21280;-91
2022/05/05 09:38:10;;;;;;;3.77;2.47;;;;;;;32.44;26.92;98323.19;1740696;80;21047;-92
2022/05/05 09:40:36;;;;;;;3.17;2.62;;;;;;;33.18;25.29;98315.84;1738692;80;20926;-91
2022/05/05 09:43:02;;;;;;;5.22;2.70;;;;;;;33.43;25.51;98315.48;1724327;80;20937;-92
2022/05/05 09:45:32;;;;;;;5.10;3.08;;;;;;;34.35;24.60;98315.86;1736012;80;20985;-92
2022/05/05 09:48:04;;;;;;;3.25;2.37;;;;;;;34.59;24.44;98315.83;1735276;80;21006;-82
2022/05/05 09:50:28;;;;;;;3.60;2.30;;;;;;;33.64;23.76;98318.54;1745847;80;20972;-82
2022/05/05 09:58:28;;;;;;;3.72;2.52;;;;;;;34.26;21.96;98316.25;1738055;80;21092;-82
2022/05/05 10:01:04;;;;;;;3.77;2.00;;;;;;;33.13;23.25;98316.91;1743597;80;21161;-82
2022/05/05 10:06:36;;;;;;;3.20;2.20;;;;;;;32.71;23.75;98316.25;1745503;80;21119;-82
2022/05/05 10:09:14;;;;;;;4.12;2.98;;;;;;;29.71;26.54;98317.31;1713094;81;21092;-89
2022/05/05 10:11:41;;;;;;;5.35;3.00;;;;;;;26.82;29.63;98321.77;1728983;80;21537;-89
2022/05/05 10:14:09;;;;;;;4.10;2.92;;;;;;;26.39;30.71;98320.66;1741495;80;21079;-91
2022/05/05 10:16:37;;;;;;;7.58;3.20;;;;;;;25.99;31.49;98321.88;1748144;80;21107;-91
2022/05/05 10:19:03;;;;;;;5.05;3.20;;;;;;;24.71;34.41;98321.22;1724477;80;21048;-89
2022/05/05 10:21:55;;;;;;;9.03;3.80;;;;;;;24.34;34.58;98320.83;1734477;80;21052;-82
2022/05/05 10:24:40;;;;;;;5.53;3.35;;;;;;;23.66;36.05;98328.73;1746391;80;21080;-81
2022/05/05 10:27:06;;;;;;;5.42;4.45;;;;;;;23.19;37.76;98330.90;1717459;80;21131;-91
2022/05/05 10:29:41;;;;;;;6.67;3.70;;;;;;;24.59;35.67;98324.70;1746363;80;21527;-87
2022/05/05 10:32:11;;;;;;;5.25;3.80;;;;;;;23.72;36.93;98321.77;1729219;81;21698;-87
2022/05/05 10:34:44;;;;;;;10.15;3.35;;;;;;;23.00;38.12;98325.48;1700079;81;21584;-89
2022/05/05 10:37:12;;;;;;;8.25;4.00;;;;;;;22.35;39.49;98326.77;1690430;82;21024;-91
2022/05/05 10:39:46;;;;;;;7.20;3.85;;;;;;;22.47;39.36;98323.95;1720240;81;26304;-90
2022/05/05 10:42:40;;;;;;;4.78;3.35;;;;;;;22.24;40.45;98328.64;1699557;82;21067;-81
2022/05/05 10:45:15;;;;;;;8.50;3.87;;;;;;;21.62;41.64;98322.11;1704084;81;21032;-81
2022/05/05 10:47:59;;;;;;;6.30;4.03;;;;;;;21.47;42.94;98317.31;1683689;83;21056;-81
2022/05/05 10:50:33;;;;;;;5.75;3.87;;;;;;;21.60;41.81;98323.84;1694740;83;21057;-81
2022/05/05 10:53:00;;;;;;;4.50;3.40;;;;;;;22.48;40.44;98316.72;1693162;82;21535;-81
2022/05/05 10:55:44;;;;;;;5.08;4.10;;;;;;;24.71;37.13;98308.75;1693427;83;21066;-81
2022/05/05 10:58:10;;;;;;;6.47;3.70;;;;;;;23.98;37.88;98315.07;1685640;83;21004;-81
2022/05/05 11:00:44;;;;;;;6.12;3.87;;;;;;;26.22;35.38;98304.53;1696060;82;21450;-81
2022/05/05 11:03:13;;;;;;;4.97;3.40;;;;;;;28.48;32.51;98306.28;1690731;82;21551;-82
2022/05/05 11:05:39;;;;;;;3.62;2.87;;;;;;;28.53;30.55;98311.45;1691216;82;21143;-81
2022/05/05 11:08:19;;;;;;;3.22;2.72;;;;;;;27.49;32.68;98309.95;1704394;82;21151;-81
2022/05/05 11:13:40;;;;;;;3.92;2.15;;;;;;;28.48;31.06;98299.91;1701787;82;21090;-81
2022/05/05 11:22:23;;;;;;;3.60;2.50;;;;;;;32.45;24.89;98289.73;1692874;82;21011;-82
2022/05/05 11:24:50;;;;;;;3.33;3.00;;;;;;;30.36;26.89;98289.48;1693949;82;21150;-81
2022/05/05 11:27:23;;;;;;;3.08;2.70;;;;;;;29.67;26.69;98289.41;1692986;82;21377;-90
2022/05/05 11:29:55;;;;;;;6.65;2.83;;;;;;;28.44;27.42;98287.93;1692221;82;21075;-81
2022/05/05 11:32:30;;;;;;;5.85;2.60;;;;;;;26.98;29.42;98291.77;1691376;82;21774;-81
2022/05/05 11:34:56;;;;;;;5.15;2.85;;;;;;;26.36;29.84;98289.45;1683151;83;21191;-81
2022/05/05 11:37:27;;;;;;;3.72;2.85;;;;;;;25.52;31.21;98297.53;1692809;82;20885;-80
2022/05/05 11:39:53;;;;;;;3.65;2.62;;;;;;;24.81;32.92;98290.72;1692270;83;21032;-81
2022/05/05 11:42:19;;;;;;;5.85;2.98;;;;;;;24.06;33.87;98287.77;1681408;83;20885;-81
2022/05/05 11:44:46;;;;;;;10.85;4.25;;;;;;;24.46;33.54;98290.83;1729296;80;21092;-80
2022/05/05 11:47:17;;;;;;;4.67;3.12;;;;;;;24.59;33.59;98288.11;1741016;80;21091;-81
2022/05/05 11:49:52;;;;;;;5.85;3.60;;;;;;;23.97;34.42;98289.95;1730131;80;21043;-81
2022/05/05 11:52:24;;;;;;;7.35;3.15;;;;;;;23.60;34.87;98292.27;1709257;81;21072;-82
2022/05/05 11:54:52;;;;;;;5.85;3.85;;;;;;;23.27;35.35;98293.41;1735338;80;21059;-81
2022/05/05 11:57:34;;;;;;;6.55;4.28;;;;;;;23.04;36.15;98300.70;1731860;80;21130;-81
2022/05/05 12:02:45;;;;;;;8.30;3.98;;;;;;;22.65;36.42;98289.38;1732895;81;21138;-89
2022/05/05 12:05:11;;;;;;;6.28;3.20;;;;;;;22.60;36.69;98286.06;1733901;80;21424;-90
2022/05/05 12:07:36;;;;;;;9.23;3.27;;;;;;;22.65;36.45;98291.34;1740480;80;20961;-89
2022/05/05 12:10:07;;;;;;;5.90;2.65;;;;;;;22.66;36.58;98287.42;1728325;80;21074;-87
2022/05/05 12:12:35;;;;;;;4.45;2.92;;;;;;;22.62;37.08;98287.31;1722883;81;21019;-90
2022/05/05 12:15:06;;;;;;;4.53;2.58;;;;;;;22.83;36.88;98289.06;1729179;80;21022;-90